Aviation Digital Data Service (ADDS)

Output produced by METARs form (0945 UTC 12 February 2016)
found at http://aviationweather.gov/adds/metars/
 
KORF 120520Z 1206/1306 36006KT P6SM BKN250 
     FM121200 03005KT P6SM OVC100 
     FM121800 04006KT 2SM -SN BR OVC025 
     FM122100 05007KT 1/2SM SN FG OVC012 
     FM130200 12004KT 5SM BR OVC025